sensor_id;sensor_type;location;lat;lon;timestamp;P1;durP1;ratioP1;P2;durP2;ratioP2
26375;SDS011;30544;42.196;24.336;2022-07-30T00:02:15;16.38;;;6.60;;
26375;SDS011;30544;42.196;24.336;2022-07-30T00:04:43;11.73;;;6.30;;
26375;SDS011;30544;42.196;24.336;2022-07-30T00:07:11;14.65;;;6.78;;
26375;SDS011;30544;42.196;24.336;2022-07-30T00:09:38;9.80;;;6.28;;
26375;SDS011;30544;42.196;24.336;2022-07-30T00:12:05;9.80;;;6.13;;
26375;SDS011;30544;42.196;24.336;2022-07-30T00:14:33;8.70;;;6.20;;
26375;SDS011;30544;42.196;24.336;2022-07-30T00:17:00;9.80;;;5.88;;
26375;SDS011;30544;42.196;24.336;2022-07-30T00:19:27;12.27;;;6.53;;
26375;SDS011;30544;42.196;24.336;2022-07-30T00:21:55;14.10;;;6.68;;
26375;SDS011;30544;42.196;24.336;2022-07-30T00:24:22;11.45;;;5.85;;
26375;SDS011;30544;42.196;24.336;2022-07-30T00:26:49;12.20;;;6.20;;
26375;SDS011;30544;42.196;24.336;2022-07-30T00:29:16;11.25;;;6.43;;
26375;SDS011;30544;42.196;24.336;2022-07-30T00:31:44;16.67;;;6.20;;
26375;SDS011;30544;42.196;24.336;2022-07-30T00:34:11;12.50;;;6.47;;
26375;SDS011;30544;42.196;24.336;2022-07-30T00:36:37;11.48;;;6.05;;
26375;SDS011;30544;42.196;24.336;2022-07-30T00:39:06;11.18;;;6.28;;
26375;SDS011;30544;42.196;24.336;2022-07-30T00:41:33;9.77;;;5.88;;
26375;SDS011;30544;42.196;24.336;2022-07-30T00:44:02;8.13;;;6.13;;
26375;SDS011;30544;42.196;24.336;2022-07-30T00:46:29;8.77;;;5.80;;
26375;SDS011;30544;42.196;24.336;2022-07-30T00:48:56;10.27;;;6.13;;
26375;SDS011;30544;42.196;24.336;2022-07-30T00:51:22;9.27;;;6.20;;
26375;SDS011;30544;42.196;24.336;2022-07-30T00:53:49;8.95;;;5.90;;
26375;SDS011;30544;42.196;24.336;2022-07-30T00:56:17;9.90;;;5.97;;
26375;SDS011;30544;42.196;24.336;2022-07-30T00:58:44;8.75;;;5.90;;
26375;SDS011;30544;42.196;24.336;2022-07-30T01:01:11;9.60;;;6.00;;
26375;SDS011;30544;42.196;24.336;2022-07-30T01:03:38;12.57;;;5.95;;
26375;SDS011;30544;42.196;24.336;2022-07-30T01:06:04;14.23;;;5.88;;
26375;SDS011;30544;42.196;24.336;2022-07-30T01:08:31;9.43;;;6.25;;
26375;SDS011;30544;42.196;24.336;2022-07-30T01:10:58;9.70;;;5.88;;
26375;SDS011;30544;42.196;24.336;2022-07-30T01:13:26;10.82;;;6.10;;
26375;SDS011;30544;42.196;24.336;2022-07-30T01:15:53;12.02;;;6.50;;
26375;SDS011;30544;42.196;24.336;2022-07-30T01:18:22;10.85;;;6.30;;
26375;SDS011;30544;42.196;24.336;2022-07-30T01:21:12;11.95;;;6.35;;
26375;SDS011;30544;42.196;24.336;2022-07-30T01:23:43;10.73;;;6.25;;
26375;SDS011;30544;42.196;24.336;2022-07-30T01:26:14;10.48;;;5.38;;
26375;SDS011;30544;42.196;24.336;2022-07-30T01:28:45;12.38;;;5.68;;
26375;SDS011;30544;42.196;24.336;2022-07-30T01:31:17;12.25;;;6.03;;
26375;SDS011;30544;42.196;24.336;2022-07-30T01:33:46;12.57;;;6.28;;
26375;SDS011;30544;42.196;24.336;2022-07-30T01:36:16;9.70;;;5.88;;
26375;SDS011;30544;42.196;24.336;2022-07-30T01:38:46;12.23;;;6.47;;
26375;SDS011;30544;42.196;24.336;2022-07-30T01:41:16;13.25;;;6.10;;
26375;SDS011;30544;42.196;24.336;2022-07-30T01:43:44;12.35;;;6.53;;
26375;SDS011;30544;42.196;24.336;2022-07-30T01:46:12;8.10;;;5.68;;
26375;SDS011;30544;42.196;24.336;2022-07-30T01:48:41;9.93;;;6.40;;
26375;SDS011;30544;42.196;24.336;2022-07-30T01:51:11;16.30;;;6.10;;
26375;SDS011;30544;42.196;24.336;2022-07-30T01:53:38;7.90;;;6.25;;
26375;SDS011;30544;42.196;24.336;2022-07-30T01:56:08;10.48;;;6.15;;
26375;SDS011;30544;42.196;24.336;2022-07-30T01:58:40;9.50;;;6.53;;
26375;SDS011;30544;42.196;24.336;2022-07-30T02:01:08;8.70;;;6.88;;
26375;SDS011;30544;42.196;24.336;2022-07-30T02:03:35;8.77;;;6.53;;
26375;SDS011;30544;42.196;24.336;2022-07-30T02:06:02;10.75;;;6.60;;
26375;SDS011;30544;42.196;24.336;2022-07-30T02:08:34;10.30;;;6.20;;
26375;SDS011;30544;42.196;24.336;2022-07-30T02:11:06;10.48;;;6.57;;
26375;SDS011;30544;42.196;24.336;2022-07-30T02:13:37;9.10;;;6.40;;
26375;SDS011;30544;42.196;24.336;2022-07-30T02:16:12;11.52;;;6.43;;
26375;SDS011;30544;42.196;24.336;2022-07-30T02:18:44;9.15;;;6.03;;
26375;SDS011;30544;42.196;24.336;2022-07-30T02:21:21;12.60;;;6.75;;
26375;SDS011;30544;42.196;24.336;2022-07-30T02:23:49;13.20;;;7.05;;
26375;SDS011;30544;42.196;24.336;2022-07-30T02:26:20;9.20;;;6.22;;
26375;SDS011;30544;42.196;24.336;2022-07-30T02:28:52;11.55;;;6.60;;
26375;SDS011;30544;42.196;24.336;2022-07-30T02:31:23;12.98;;;6.82;;
26375;SDS011;30544;42.196;24.336;2022-07-30T02:33:53;7.18;;;6.13;;
26375;SDS011;30544;42.196;24.336;2022-07-30T02:36:23;11.82;;;6.97;;
26375;SDS011;30544;42.196;24.336;2022-07-30T02:38:52;7.68;;;6.35;;
26375;SDS011;30544;42.196;24.336;2022-07-30T02:41:19;9.70;;;6.35;;
26375;SDS011;30544;42.196;24.336;2022-07-30T02:43:49;12.15;;;6.60;;
26375;SDS011;30544;42.196;24.336;2022-07-30T02:46:19;12.82;;;7.30;;
26375;SDS011;30544;42.196;24.336;2022-07-30T02:48:48;9.63;;;6.70;;
26375;SDS011;30544;42.196;24.336;2022-07-30T02:51:16;12.57;;;6.72;;
26375;SDS011;30544;42.196;24.336;2022-07-30T02:53:47;13.15;;;6.95;;
26375;SDS011;30544;42.196;24.336;2022-07-30T02:56:16;8.32;;;7.28;;
26375;SDS011;30544;42.196;24.336;2022-07-30T02:58:47;9.75;;;6.75;;
26375;SDS011;30544;42.196;24.336;2022-07-30T03:01:17;8.88;;;6.35;;
26375;SDS011;30544;42.196;24.336;2022-07-30T03:03:46;10.70;;;6.95;;
26375;SDS011;30544;42.196;24.336;2022-07-30T03:06:15;9.00;;;6.63;;
26375;SDS011;30544;42.196;24.336;2022-07-30T03:08:44;9.40;;;6.68;;
26375;SDS011;30544;42.196;24.336;2022-07-30T03:11:12;11.00;;;6.95;;
26375;SDS011;30544;42.196;24.336;2022-07-30T03:13:43;10.27;;;6.97;;
26375;SDS011;30544;42.196;24.336;2022-07-30T03:16:10;12.02;;;6.80;;
26375;SDS011;30544;42.196;24.336;2022-07-30T03:18:40;10.38;;;6.65;;
26375;SDS011;30544;42.196;24.336;2022-07-30T03:21:08;11.95;;;7.35;;
26375;SDS011;30544;42.196;24.336;2022-07-30T03:23:37;14.55;;;7.32;;
26375;SDS011;30544;42.196;24.336;2022-07-30T03:26:06;13.95;;;7.47;;
26375;SDS011;30544;42.196;24.336;2022-07-30T03:28:35;14.43;;;8.20;;
26375;SDS011;30544;42.196;24.336;2022-07-30T03:31:04;12.07;;;8.35;;
26375;SDS011;30544;42.196;24.336;2022-07-30T03:33:34;12.27;;;8.30;;
26375;SDS011;30544;42.196;24.336;2022-07-30T03:36:03;10.15;;;7.93;;
26375;SDS011;30544;42.196;24.336;2022-07-30T03:38:31;12.55;;;7.97;;
26375;SDS011;30544;42.196;24.336;2022-07-30T03:40:59;11.65;;;7.75;;
26375;SDS011;30544;42.196;24.336;2022-07-30T03:43:26;10.27;;;7.78;;
26375;SDS011;30544;42.196;24.336;2022-07-30T03:45:54;10.68;;;7.75;;
26375;SDS011;30544;42.196;24.336;2022-07-30T03:48:22;8.93;;;7.15;;
26375;SDS011;30544;42.196;24.336;2022-07-30T03:50:51;10.50;;;7.00;;
26375;SDS011;30544;42.196;24.336;2022-07-30T03:53:21;11.88;;;7.38;;
26375;SDS011;30544;42.196;24.336;2022-07-30T03:55:49;15.48;;;7.85;;
26375;SDS011;30544;42.196;24.336;2022-07-30T03:58:17;19.52;;;7.57;;
26375;SDS011;30544;42.196;24.336;2022-07-30T04:00:46;14.23;;;7.25;;
26375;SDS011;30544;42.196;24.336;2022-07-30T04:03:13;13.75;;;7.22;;
26375;SDS011;30544;42.196;24.336;2022-07-30T04:05:49;155.48;;;70.10;;
26375;SDS011;30544;42.196;24.336;2022-07-30T04:08:15;265.38;;;103.10;;
26375;SDS011;30544;42.196;24.336;2022-07-30T04:10:44;73.75;;;31.83;;
26375;SDS011;30544;42.196;24.336;2022-07-30T04:13:11;224.63;;;86.82;;
26375;SDS011;30544;42.196;24.336;2022-07-30T04:15:40;175.70;;;66.60;;
26375;SDS011;30544;42.196;24.336;2022-07-30T04:20:42;159.15;;;62.50;;
26375;SDS011;30544;42.196;24.336;2022-07-30T04:23:11;44.85;;;21.88;;
26375;SDS011;30544;42.196;24.336;2022-07-30T04:25:39;148.63;;;72.88;;
26375;SDS011;30544;42.196;24.336;2022-07-30T04:28:10;69.65;;;36.92;;
26375;SDS011;30544;42.196;24.336;2022-07-30T04:30:38;27.95;;;17.00;;
26375;SDS011;30544;42.196;24.336;2022-07-30T04:33:06;18.55;;;11.35;;
26375;SDS011;30544;42.196;24.336;2022-07-30T04:35:33;13.13;;;7.57;;
26375;SDS011;30544;42.196;24.336;2022-07-30T04:38:01;10.73;;;6.68;;
26375;SDS011;30544;42.196;24.336;2022-07-30T04:40:29;15.75;;;8.30;;
26375;SDS011;30544;42.196;24.336;2022-07-30T04:42:56;11.00;;;6.60;;
26375;SDS011;30544;42.196;24.336;2022-07-30T04:45:24;10.00;;;6.40;;
26375;SDS011;30544;42.196;24.336;2022-07-30T04:47:51;12.13;;;6.57;;
26375;SDS011;30544;42.196;24.336;2022-07-30T04:50:19;10.50;;;6.60;;
26375;SDS011;30544;42.196;24.336;2022-07-30T04:52:50;12.00;;;6.53;;
26375;SDS011;30544;42.196;24.336;2022-07-30T04:55:19;14.70;;;6.88;;
26375;SDS011;30544;42.196;24.336;2022-07-30T04:57:48;8.93;;;6.60;;
26375;SDS011;30544;42.196;24.336;2022-07-30T05:00:16;9.20;;;6.55;;
26375;SDS011;30544;42.196;24.336;2022-07-30T05:02:45;14.90;;;6.50;;
26375;SDS011;30544;42.196;24.336;2022-07-30T05:05:14;10.55;;;6.78;;
26375;SDS011;30544;42.196;24.336;2022-07-30T05:07:42;12.45;;;6.03;;
26375;SDS011;30544;42.196;24.336;2022-07-30T05:10:09;12.23;;;7.05;;
26375;SDS011;30544;42.196;24.336;2022-07-30T05:12:37;12.60;;;6.80;;
26375;SDS011;30544;42.196;24.336;2022-07-30T05:15:04;17.95;;;6.95;;
26375;SDS011;30544;42.196;24.336;2022-07-30T05:17:32;14.32;;;6.68;;
26375;SDS011;30544;42.196;24.336;2022-07-30T05:20:00;11.45;;;6.47;;
26375;SDS011;30544;42.196;24.336;2022-07-30T05:22:30;15.30;;;6.72;;
26375;SDS011;30544;42.196;24.336;2022-07-30T05:24:56;12.57;;;6.05;;
26375;SDS011;30544;42.196;24.336;2022-07-30T05:27:23;13.52;;;7.30;;
26375;SDS011;30544;42.196;24.336;2022-07-30T05:29:51;11.00;;;6.07;;
26375;SDS011;30544;42.196;24.336;2022-07-30T05:32:18;11.00;;;5.97;;
26375;SDS011;30544;42.196;24.336;2022-07-30T05:34:45;8.65;;;5.93;;
26375;SDS011;30544;42.196;24.336;2022-07-30T05:37:13;12.18;;;5.68;;
26375;SDS011;30544;42.196;24.336;2022-07-30T05:39:40;11.75;;;5.47;;
26375;SDS011;30544;42.196;24.336;2022-07-30T05:42:06;10.40;;;5.45;;
26375;SDS011;30544;42.196;24.336;2022-07-30T05:44:33;7.72;;;5.85;;
26375;SDS011;30544;42.196;24.336;2022-07-30T05:47:00;9.63;;;5.22;;
26375;SDS011;30544;42.196;24.336;2022-07-30T05:49:27;8.55;;;6.15;;
26375;SDS011;30544;42.196;24.336;2022-07-30T05:51:53;15.88;;;6.43;;
26375;SDS011;30544;42.196;24.336;2022-07-30T05:54:22;9.13;;;5.85;;
26375;SDS011;30544;42.196;24.336;2022-07-30T05:56:48;9.52;;;5.18;;
26375;SDS011;30544;42.196;24.336;2022-07-30T05:59:15;6.75;;;5.30;;
26375;SDS011;30544;42.196;24.336;2022-07-30T06:01:42;11.48;;;5.43;;
26375;SDS011;30544;42.196;24.336;2022-07-30T06:04:09;13.00;;;5.10;;
26375;SDS011;30544;42.196;24.336;2022-07-30T06:06:36;10.70;;;5.72;;
26375;SDS011;30544;42.196;24.336;2022-07-30T06:09:03;13.50;;;4.85;;
26375;SDS011;30544;42.196;24.336;2022-07-30T06:11:31;10.13;;;5.10;;
26375;SDS011;30544;42.196;24.336;2022-07-30T06:13:58;13.40;;;4.88;;
26375;SDS011;30544;42.196;24.336;2022-07-30T06:16:25;11.57;;;5.07;;
26375;SDS011;30544;42.196;24.336;2022-07-30T06:18:52;10.35;;;5.03;;
26375;SDS011;30544;42.196;24.336;2022-07-30T06:21:18;7.05;;;4.60;;
26375;SDS011;30544;42.196;24.336;2022-07-30T06:23:45;10.32;;;4.82;;
26375;SDS011;30544;42.196;24.336;2022-07-30T06:26:12;6.10;;;4.90;;
26375;SDS011;30544;42.196;24.336;2022-07-30T06:28:40;9.75;;;4.63;;
26375;SDS011;30544;42.196;24.336;2022-07-30T06:31:07;6.10;;;4.60;;
26375;SDS011;30544;42.196;24.336;2022-07-30T06:33:34;14.55;;;4.80;;
26375;SDS011;30544;42.196;24.336;2022-07-30T06:36:01;9.70;;;4.90;;
26375;SDS011;30544;42.196;24.336;2022-07-30T06:38:28;13.23;;;4.72;;
26375;SDS011;30544;42.196;24.336;2022-07-30T06:40:55;6.40;;;4.90;;
26375;SDS011;30544;42.196;24.336;2022-07-30T06:43:22;10.32;;;5.63;;
26375;SDS011;30544;42.196;24.336;2022-07-30T06:45:50;7.75;;;4.75;;
26375;SDS011;30544;42.196;24.336;2022-07-30T06:48:17;10.57;;;5.05;;
26375;SDS011;30544;42.196;24.336;2022-07-30T06:50:44;9.40;;;5.03;;
26375;SDS011;30544;42.196;24.336;2022-07-30T06:53:11;11.40;;;6.75;;
26375;SDS011;30544;42.196;24.336;2022-07-30T06:55:38;9.68;;;6.80;;
26375;SDS011;30544;42.196;24.336;2022-07-30T06:58:05;10.10;;;6.10;;
26375;SDS011;30544;42.196;24.336;2022-07-30T07:00:31;10.07;;;5.88;;
26375;SDS011;30544;42.196;24.336;2022-07-30T07:03:00;11.15;;;5.80;;
26375;SDS011;30544;42.196;24.336;2022-07-30T07:05:26;8.82;;;5.57;;
26375;SDS011;30544;42.196;24.336;2022-07-30T07:07:54;14.68;;;5.93;;
26375;SDS011;30544;42.196;24.336;2022-07-30T07:10:21;11.02;;;5.25;;
26375;SDS011;30544;42.196;24.336;2022-07-30T07:12:48;10.80;;;6.00;;
26375;SDS011;30544;42.196;24.336;2022-07-30T07:15:15;21.52;;;9.55;;
26375;SDS011;30544;42.196;24.336;2022-07-30T07:17:41;10.43;;;6.30;;
26375;SDS011;30544;42.196;24.336;2022-07-30T07:20:12;12.70;;;6.20;;
26375;SDS011;30544;42.196;24.336;2022-07-30T07:22:39;14.45;;;6.35;;
26375;SDS011;30544;42.196;24.336;2022-07-30T07:25:06;16.85;;;6.22;;
26375;SDS011;30544;42.196;24.336;2022-07-30T07:27:34;12.73;;;5.72;;
26375;SDS011;30544;42.196;24.336;2022-07-30T07:30:04;13.63;;;5.72;;
26375;SDS011;30544;42.196;24.336;2022-07-30T07:32:31;12.98;;;5.65;;
26375;SDS011;30544;42.196;24.336;2022-07-30T07:34:58;17.27;;;5.63;;
26375;SDS011;30544;42.196;24.336;2022-07-30T07:37:26;13.80;;;5.53;;
26375;SDS011;30544;42.196;24.336;2022-07-30T07:39:53;11.70;;;5.07;;
26375;SDS011;30544;42.196;24.336;2022-07-30T07:42:20;8.20;;;5.00;;
26375;SDS011;30544;42.196;24.336;2022-07-30T07:44:47;14.30;;;5.70;;
26375;SDS011;30544;42.196;24.336;2022-07-30T07:47:14;12.20;;;5.50;;
26375;SDS011;30544;42.196;24.336;2022-07-30T07:49:40;13.07;;;5.85;;
26375;SDS011;30544;42.196;24.336;2022-07-30T07:52:07;8.02;;;4.93;;
26375;SDS011;30544;42.196;24.336;2022-07-30T07:54:35;11.02;;;5.15;;
26375;SDS011;30544;42.196;24.336;2022-07-30T07:57:02;9.30;;;5.63;;
26375;SDS011;30544;42.196;24.336;2022-07-30T07:59:32;14.93;;;5.40;;
26375;SDS011;30544;42.196;24.336;2022-07-30T08:01:58;7.18;;;5.40;;
26375;SDS011;30544;42.196;24.336;2022-07-30T08:04:25;9.25;;;5.13;;
26375;SDS011;30544;42.196;24.336;2022-07-30T08:06:52;11.02;;;5.18;;
26375;SDS011;30544;42.196;24.336;2022-07-30T08:09:19;8.60;;;5.60;;
26375;SDS011;30544;42.196;24.336;2022-07-30T08:11:47;11.05;;;5.13;;
26375;SDS011;30544;42.196;24.336;2022-07-30T08:14:14;10.93;;;4.50;;
26375;SDS011;30544;42.196;24.336;2022-07-30T08:16:41;8.90;;;5.32;;
26375;SDS011;30544;42.196;24.336;2022-07-30T08:19:08;9.38;;;5.20;;
26375;SDS011;30544;42.196;24.336;2022-07-30T08:21:36;6.57;;;5.47;;
26375;SDS011;30544;42.196;24.336;2022-07-30T08:24:03;11.38;;;5.60;;
26375;SDS011;30544;42.196;24.336;2022-07-30T08:26:31;9.75;;;5.65;;
26375;SDS011;30544;42.196;24.336;2022-07-30T08:28:59;8.38;;;5.30;;
26375;SDS011;30544;42.196;24.336;2022-07-30T08:31:26;11.55;;;5.10;;
26375;SDS011;30544;42.196;24.336;2022-07-30T08:33:53;11.57;;;5.68;;
26375;SDS011;30544;42.196;24.336;2022-07-30T08:36:20;10.65;;;4.70;;
26375;SDS011;30544;42.196;24.336;2022-07-30T08:38:46;11.85;;;4.22;;
26375;SDS011;30544;42.196;24.336;2022-07-30T08:41:16;9.93;;;5.05;;
26375;SDS011;30544;42.196;24.336;2022-07-30T08:43:44;8.52;;;4.57;;
26375;SDS011;30544;42.196;24.336;2022-07-30T08:46:14;13.52;;;5.10;;
26375;SDS011;30544;42.196;24.336;2022-07-30T08:48:43;8.85;;;4.72;;
26375;SDS011;30544;42.196;24.336;2022-07-30T08:51:12;8.60;;;4.65;;
26375;SDS011;30544;42.196;24.336;2022-07-30T08:53:41;7.25;;;4.55;;
26375;SDS011;30544;42.196;24.336;2022-07-30T08:56:08;7.35;;;4.82;;
26375;SDS011;30544;42.196;24.336;2022-07-30T08:58:36;8.77;;;4.50;;
26375;SDS011;30544;42.196;24.336;2022-07-30T09:01:03;8.00;;;4.90;;
26375;SDS011;30544;42.196;24.336;2022-07-30T09:03:32;6.68;;;4.20;;
26375;SDS011;30544;42.196;24.336;2022-07-30T09:06:00;13.38;;;4.60;;
26375;SDS011;30544;42.196;24.336;2022-07-30T09:08:27;5.95;;;4.50;;
26375;SDS011;30544;42.196;24.336;2022-07-30T09:10:54;5.32;;;4.50;;
26375;SDS011;30544;42.196;24.336;2022-07-30T09:13:22;9.02;;;4.10;;
26375;SDS011;30544;42.196;24.336;2022-07-30T09:15:50;7.43;;;4.20;;
26375;SDS011;30544;42.196;24.336;2022-07-30T09:18:25;10.38;;;4.28;;
26375;SDS011;30544;42.196;24.336;2022-07-30T09:20:54;6.05;;;4.30;;
26375;SDS011;30544;42.196;24.336;2022-07-30T09:23:21;9.88;;;4.70;;
26375;SDS011;30544;42.196;24.336;2022-07-30T09:25:48;6.22;;;4.20;;
26375;SDS011;30544;42.196;24.336;2022-07-30T09:28:15;10.65;;;4.68;;
26375;SDS011;30544;42.196;24.336;2022-07-30T09:30:43;7.38;;;4.25;;
26375;SDS011;30544;42.196;24.336;2022-07-30T09:33:12;4.20;;;3.70;;
26375;SDS011;30544;42.196;24.336;2022-07-30T09:35:39;8.35;;;4.35;;
26375;SDS011;30544;42.196;24.336;2022-07-30T09:38:08;8.70;;;4.18;;
26375;SDS011;30544;42.196;24.336;2022-07-30T09:40:35;8.93;;;4.30;;
26375;SDS011;30544;42.196;24.336;2022-07-30T09:43:06;6.82;;;4.40;;
26375;SDS011;30544;42.196;24.336;2022-07-30T09:45:34;24.25;;;13.70;;
26375;SDS011;30544;42.196;24.336;2022-07-30T09:48:02;14.88;;;4.55;;
26375;SDS011;30544;42.196;24.336;2022-07-30T09:50:46;6.38;;;3.75;;
26375;SDS011;30544;42.196;24.336;2022-07-30T09:53:15;4.85;;;3.95;;
26375;SDS011;30544;42.196;24.336;2022-07-30T09:55:43;7.28;;;4.45;;
26375;SDS011;30544;42.196;24.336;2022-07-30T09:58:11;5.72;;;3.80;;
26375;SDS011;30544;42.196;24.336;2022-07-30T10:00:38;11.13;;;4.25;;
26375;SDS011;30544;42.196;24.336;2022-07-30T10:03:16;14.32;;;4.60;;
26375;SDS011;30544;42.196;24.336;2022-07-30T10:05:51;9.65;;;4.00;;
26375;SDS011;30544;42.196;24.336;2022-07-30T10:08:21;10.88;;;4.35;;
26375;SDS011;30544;42.196;24.336;2022-07-30T10:11:04;10.07;;;4.53;;
26375;SDS011;30544;42.196;24.336;2022-07-30T10:13:32;9.05;;;4.18;;
26375;SDS011;30544;42.196;24.336;2022-07-30T10:16:00;6.38;;;3.33;;
26375;SDS011;30544;42.196;24.336;2022-07-30T10:18:28;8.95;;;4.50;;
26375;SDS011;30544;42.196;24.336;2022-07-30T10:20:55;7.72;;;3.97;;
26375;SDS011;30544;42.196;24.336;2022-07-30T10:23:26;7.55;;;4.82;;
26375;SDS011;30544;42.196;24.336;2022-07-30T10:25:54;16.67;;;4.63;;
26375;SDS011;30544;42.196;24.336;2022-07-30T10:28:21;8.38;;;4.40;;
26375;SDS011;30544;42.196;24.336;2022-07-30T10:30:48;7.63;;;4.28;;
26375;SDS011;30544;42.196;24.336;2022-07-30T10:33:16;7.00;;;4.30;;
26375;SDS011;30544;42.196;24.336;2022-07-30T10:35:43;103.43;;;46.38;;
26375;SDS011;30544;42.196;24.336;2022-07-30T10:38:10;8.20;;;4.28;;
26375;SDS011;30544;42.196;24.336;2022-07-30T10:40:47;33.83;;;15.02;;
26375;SDS011;30544;42.196;24.336;2022-07-30T10:43:24;29.10;;;12.15;;
26375;SDS011;30544;42.196;24.336;2022-07-30T10:46:12;10.25;;;5.20;;
26375;SDS011;30544;42.196;24.336;2022-07-30T10:48:44;9.27;;;4.30;;
26375;SDS011;30544;42.196;24.336;2022-07-30T10:51:11;10.27;;;4.15;;
26375;SDS011;30544;42.196;24.336;2022-07-30T10:53:39;7.72;;;4.38;;
26375;SDS011;30544;42.196;24.336;2022-07-30T10:56:14;5.90;;;4.03;;
26375;SDS011;30544;42.196;24.336;2022-07-30T11:04:32;18.95;;;4.38;;
26375;SDS011;30544;42.196;24.336;2022-07-30T11:09:54;10.93;;;3.90;;
26375;SDS011;30544;42.196;24.336;2022-07-30T11:15:21;4.97;;;4.40;;
26375;SDS011;30544;42.196;24.336;2022-07-30T11:17:58;14.52;;;4.32;;
26375;SDS011;30544;42.196;24.336;2022-07-30T11:20:27;11.05;;;3.88;;
26375;SDS011;30544;42.196;24.336;2022-07-30T11:22:58;8.70;;;3.92;;
26375;SDS011;30544;42.196;24.336;2022-07-30T11:25:38;5.20;;;4.20;;
26375;SDS011;30544;42.196;24.336;2022-07-30T11:28:08;6.32;;;3.90;;
26375;SDS011;30544;42.196;24.336;2022-07-30T11:34:23;6.78;;;3.97;;
26375;SDS011;30544;42.196;24.336;2022-07-30T11:37:03;6.88;;;3.90;;
26375;SDS011;30544;42.196;24.336;2022-07-30T11:42:33;9.18;;;4.50;;
26375;SDS011;30544;42.196;24.336;2022-07-30T11:45:24;6.55;;;3.75;;
26375;SDS011;30544;42.196;24.336;2022-07-30T11:47:54;5.75;;;4.32;;
26375;SDS011;30544;42.196;24.336;2022-07-30T11:50:24;29.90;;;14.57;;
26375;SDS011;30544;42.196;24.336;2022-07-30T11:52:53;9.35;;;4.20;;
26375;SDS011;30544;42.196;24.336;2022-07-30T11:55:21;8.77;;;4.07;;
26375;SDS011;30544;42.196;24.336;2022-07-30T11:57:49;4.70;;;3.50;;
26375;SDS011;30544;42.196;24.336;2022-07-30T12:00:17;6.85;;;3.50;;
26375;SDS011;30544;42.196;24.336;2022-07-30T12:02:46;9.45;;;3.85;;
26375;SDS011;30544;42.196;24.336;2022-07-30T12:05:13;5.72;;;3.35;;
26375;SDS011;30544;42.196;24.336;2022-07-30T12:07:41;6.18;;;3.42;;
26375;SDS011;30544;42.196;24.336;2022-07-30T12:10:12;5.88;;;3.50;;
26375;SDS011;30544;42.196;24.336;2022-07-30T12:12:40;7.95;;;3.67;;
26375;SDS011;30544;42.196;24.336;2022-07-30T12:15:07;6.75;;;4.20;;
26375;SDS011;30544;42.196;24.336;2022-07-30T12:17:41;5.45;;;3.22;;
26375;SDS011;30544;42.196;24.336;2022-07-30T12:25:11;6.15;;;3.45;;
26375;SDS011;30544;42.196;24.336;2022-07-30T12:27:38;12.63;;;3.53;;
26375;SDS011;30544;42.196;24.336;2022-07-30T12:30:05;6.65;;;3.30;;
26375;SDS011;30544;42.196;24.336;2022-07-30T12:32:34;6.10;;;3.42;;
26375;SDS011;30544;42.196;24.336;2022-07-30T12:35:02;6.30;;;3.55;;
26375;SDS011;30544;42.196;24.336;2022-07-30T12:37:31;5.30;;;3.30;;
26375;SDS011;30544;42.196;24.336;2022-07-30T12:40:05;4.22;;;3.35;;
26375;SDS011;30544;42.196;24.336;2022-07-30T12:42:33;5.63;;;3.35;;
26375;SDS011;30544;42.196;24.336;2022-07-30T12:45:00;4.60;;;3.38;;
26375;SDS011;30544;42.196;24.336;2022-07-30T12:47:27;6.88;;;3.40;;
26375;SDS011;30544;42.196;24.336;2022-07-30T12:49:58;5.57;;;3.80;;
26375;SDS011;30544;42.196;24.336;2022-07-30T12:52:27;8.57;;;4.28;;
26375;SDS011;30544;42.196;24.336;2022-07-30T12:54:57;4.75;;;3.03;;
26375;SDS011;30544;42.196;24.336;2022-07-30T12:57:25;10.02;;;3.60;;
26375;SDS011;30544;42.196;24.336;2022-07-30T13:00:02;4.88;;;3.05;;
26375;SDS011;30544;42.196;24.336;2022-07-30T13:02:31;9.75;;;3.33;;
26375;SDS011;30544;42.196;24.336;2022-07-30T13:04:58;7.65;;;3.42;;
26375;SDS011;30544;42.196;24.336;2022-07-30T13:07:25;4.80;;;3.30;;
26375;SDS011;30544;42.196;24.336;2022-07-30T13:10:07;6.43;;;2.78;;
26375;SDS011;30544;42.196;24.336;2022-07-30T13:12:34;6.50;;;2.85;;
26375;SDS011;30544;42.196;24.336;2022-07-30T13:15:01;4.00;;;2.80;;
26375;SDS011;30544;42.196;24.336;2022-07-30T13:17:29;6.20;;;2.80;;
26375;SDS011;30544;42.196;24.336;2022-07-30T13:19:56;10.68;;;3.55;;
26375;SDS011;30544;42.196;24.336;2022-07-30T13:22:24;7.30;;;3.15;;
26375;SDS011;30544;42.196;24.336;2022-07-30T13:24:50;3.78;;;2.95;;
26375;SDS011;30544;42.196;24.336;2022-07-30T13:27:18;4.57;;;2.97;;
26375;SDS011;30544;42.196;24.336;2022-07-30T13:29:45;6.75;;;3.10;;
26375;SDS011;30544;42.196;24.336;2022-07-30T13:32:12;4.35;;;3.13;;
26375;SDS011;30544;42.196;24.336;2022-07-30T13:34:39;5.40;;;3.10;;
26375;SDS011;30544;42.196;24.336;2022-07-30T13:37:06;6.57;;;2.92;;
26375;SDS011;30544;42.196;24.336;2022-07-30T13:39:33;4.35;;;2.75;;
26375;SDS011;30544;42.196;24.336;2022-07-30T13:42:00;6.28;;;2.72;;
26375;SDS011;30544;42.196;24.336;2022-07-30T13:44:28;6.68;;;2.95;;
26375;SDS011;30544;42.196;24.336;2022-07-30T13:46:55;3.17;;;2.88;;
26375;SDS011;30544;42.196;24.336;2022-07-30T13:49:22;6.60;;;2.60;;
26375;SDS011;30544;42.196;24.336;2022-07-30T13:51:49;5.68;;;2.63;;
26375;SDS011;30544;42.196;24.336;2022-07-30T13:54:16;7.90;;;2.75;;
26375;SDS011;30544;42.196;24.336;2022-07-30T13:56:42;8.82;;;2.80;;
26375;SDS011;30544;42.196;24.336;2022-07-30T13:59:09;7.82;;;2.80;;
26375;SDS011;30544;42.196;24.336;2022-07-30T14:01:37;7.38;;;2.40;;
26375;SDS011;30544;42.196;24.336;2022-07-30T14:04:04;3.55;;;2.78;;
26375;SDS011;30544;42.196;24.336;2022-07-30T14:06:32;5.97;;;2.60;;
26375;SDS011;30544;42.196;24.336;2022-07-30T14:08:59;5.28;;;2.70;;
26375;SDS011;30544;42.196;24.336;2022-07-30T14:11:26;3.53;;;2.50;;
26375;SDS011;30544;42.196;24.336;2022-07-30T14:13:53;6.10;;;2.90;;
26375;SDS011;30544;42.196;24.336;2022-07-30T14:16:20;5.90;;;2.47;;
26375;SDS011;30544;42.196;24.336;2022-07-30T14:18:48;5.10;;;2.85;;
26375;SDS011;30544;42.196;24.336;2022-07-30T14:21:15;4.05;;;2.72;;
26375;SDS011;30544;42.196;24.336;2022-07-30T14:23:42;7.25;;;2.67;;
26375;SDS011;30544;42.196;24.336;2022-07-30T14:26:08;6.90;;;3.00;;
26375;SDS011;30544;42.196;24.336;2022-07-30T14:28:35;4.43;;;2.38;;
26375;SDS011;30544;42.196;24.336;2022-07-30T14:31:02;9.15;;;2.70;;
26375;SDS011;30544;42.196;24.336;2022-07-30T14:33:29;4.82;;;2.35;;
26375;SDS011;30544;42.196;24.336;2022-07-30T14:35:57;3.75;;;2.20;;
26375;SDS011;30544;42.196;24.336;2022-07-30T14:38:24;5.63;;;2.50;;
26375;SDS011;30544;42.196;24.336;2022-07-30T14:40:50;2.63;;;2.28;;
26375;SDS011;30544;42.196;24.336;2022-07-30T14:43:17;4.47;;;2.33;;
26375;SDS011;30544;42.196;24.336;2022-07-30T14:45:44;5.63;;;2.63;;
26375;SDS011;30544;42.196;24.336;2022-07-30T14:48:14;6.32;;;2.75;;
26375;SDS011;30544;42.196;24.336;2022-07-30T14:50:41;4.82;;;2.45;;
26375;SDS011;30544;42.196;24.336;2022-07-30T14:53:09;8.50;;;2.42;;
26375;SDS011;30544;42.196;24.336;2022-07-30T14:55:36;2.95;;;2.10;;
26375;SDS011;30544;42.196;24.336;2022-07-30T14:58:03;5.10;;;2.55;;
26375;SDS011;30544;42.196;24.336;2022-07-30T15:00:30;3.95;;;2.03;;
26375;SDS011;30544;42.196;24.336;2022-07-30T15:02:56;3.30;;;2.08;;